Flight Track Log - Related Links

Times and Time Zones

All times are in EDT time to prevent confusion due to time zone crossing. See the AWE1092 flight status page for this flight to view local times or setup timezone preferences in your user account.

Time Position Orientation Groundspeed Altitude Reporting Facility
EDT Latitude Longitude Course Direction KTS MPH feet Rate Location/Type
Fri 07:06:48 AM 42.9167 -71.4167 273° West 154 177 1,300  Level KA90
Fri 07:07:48 AM 42.8667 -71.4500 206° Southwest 178 205 3,500 2,490 Climbing KA90
Fri 07:09:00 AM 42.9496 -71.8974 283° West  Level FlightAware Approximate
Fri 07:09:15 AM 42.9283 -71.5553 309° West 294 338 7,400  Level Boston Center
Fri 07:10:00 AM 42.9500 -72.0144 270° West  Level FlightAware Approximate
Fri 07:10:13 AM 42.9561 -71.6344 296° West 273 314 10,300  Level Boston Center
Fri 07:11:00 AM 42.9501 -72.1315 270° West  Level FlightAware Approximate
Fri 07:11:13 AM 42.9611 -71.7592 273° West 283 326 11,500  Level Boston Center
Fri 07:12:00 AM 42.9514 -72.2486 273° West  Level FlightAware Approximate
Fri 07:12:12 AM 42.9639 -71.8811 272° West 341 392 14,000  Level Boston Center
Fri 07:13:15 AM 42.9686 -72.0344 272° West 364 419 16,700 2,098 Climbing Boston Center
Fri 07:14:15 AM 42.9711 -72.1647 272° West 376 433 18,300 1,678 Climbing Boston Center
Fri 07:15:13 AM 42.9839 -72.3236 276° West 387 445 20,000 864 Climbing Boston Center
Fri 07:16:13 AM 42.9881 -72.4714 272° West 387 445 20,000  Level Boston Center
Fri 07:17:15 AM 42.9881 -72.6217 270° West 387 445 20,000  Level Boston Center
Fri 07:18:12 AM 42.9836 -72.7550 267° West 387 445 20,000  Level Boston Center
Fri 07:19:13 AM 42.9872 -72.9028 272° West 387 445 20,000  Level Boston Center
Fri 07:20:13 AM 42.9906 -73.0617 272° West 387 445 20,000  Level Boston Center
Fri 07:21:14 AM 42.9939 -73.2064 272° West 387 445 20,000  Level Boston Center
Fri 07:22:14 AM 42.9886 -73.3397 267° West 387 445 20,000  Level Boston Center
Fri 07:23:14 AM 42.9272 -73.4722 238° Southwest 367 422 20,000  Level Boston Center
Fri 07:24:15 AM 42.8656 -73.5844 233° Southwest 373 429 20,000  Level Boston Center
Fri 07:25:13 AM 42.8125 -73.6883 235° Southwest 379 436 20,000  Level Boston Center
Fri 07:26:15 AM 42.7422 -73.8139 233° Southwest 384 442 20,000  Level Boston Center
Fri 07:27:15 AM 42.6844 -73.9342 237° Southwest 384 442 20,000  Level Boston Center
Fri 07:28:14 AM 42.6264 -74.0542 237° Southwest 384 442 20,000  Level Boston Center
Fri 07:29:15 AM 42.5750 -74.1628 237° Southwest 384 442 20,000  Level Boston Center
Fri 07:30:12 AM 42.5167 -74.2850 237° Southwest 389 448 20,000  Level Boston Center
Fri 07:31:13 AM 42.4564 -74.4044 236° Southwest 389 448 20,000  Level Boston Center
Fri 07:32:15 AM 42.3894 -74.5344 235° Southwest 389 448 20,000  Level Boston Center
Fri 07:33:14 AM 42.3308 -74.6589 238° Southwest 395 455 20,000 -350 Level Boston Center
Fri 07:34:15 AM 42.2722 -74.7744 236° Southwest 395 455 19,300 -300 Descending Boston Center
Fri 07:36:34 AM 42.1056 -75.0197 228° Southwest 385 443 19,000 -90 Descending New York Center
Fri 07:37:35 AM 42.0131 -75.0975 212° Southwest 390 449 19,000  Level New York Center
Fri 07:38:36 AM 41.9231 -75.1697 211° Southwest 397 457 19,000  Level New York Center
Fri 07:39:35 AM 41.8328 -75.2444 212° Southwest 397 457 19,000 -857 Level New York Center
Fri 07:40:35 AM 41.7533 -75.3086 211° Southwest 392 451 17,300 -1,785 Descending New York Center
Fri 07:41:36 AM 41.6567 -75.3853 211° Southwest 387 445 15,400 -1,587 Descending New York Center
Fri 07:42:36 AM 41.5750 -75.4517 211° Southwest 364 419 14,100 -1,373 Descending New York Center
Fri 07:43:34 AM 41.4975 -75.5128 211° Southwest 344 396 12,700 -1,109 Descending New York Center
Fri 07:44:35 AM 41.4286 -75.5689 211° Southwest 332 382 11,900 -400 Descending New York Center
Fri 07:45:34 AM 41.3514 -75.6269 209° Southwest 327 376 11,900 -50 Level New York Center
Fri 07:46:35 AM 41.2717 -75.6900 211° Southwest 327 376 11,800 -541 Descending New York Center
Fri 07:47:36 AM 41.1728 -75.6664 170° South 306 352 10,800 -893 Descending New York Center
Fri 07:48:36 AM 41.0842 -75.6378 166° South 324 373 10,000 -450 Descending New York Center
Fri 07:49:36 AM 40.9992 -75.6319 177° South 326 375 9,900  Descending New York Center
Fri 07:50:34 AM 40.9128 -75.6558 192° South 320 368 10,000 50 Climbing New York Center
Fri 07:51:35 AM 40.8353 -75.6614 183° South 314 361 10,000  Level New York Center
Fri 07:52:35 AM 40.7519 -75.6114 156° South 314 361 10,000  Level New York Center
Fri 07:53:36 AM 40.6625 -75.5586 156° South 321 369 10,000  Level New York Center
Fri 07:54:05 AM 40.6169 -75.5319 156° South 328 377 10,000  Level FAA TRACON SMA TRACON (SMA)
Fri 07:54:25 AM 40.5911 -75.5172 157° South 328 377 10,000  Level FAA TRACON SMA TRACON (SMA)
Fri 07:55:05 AM 40.5336 -75.4822 155° Southeast 333 383 10,000  Level FAA TRACON SMA TRACON (SMA)
Fri 07:55:28 AM 40.5000 -75.4633 157° South 333 383 10,000  Level FAA TRACON SMA TRACON (SMA)
Fri 07:55:48 AM 40.4747 -75.4472 154° Southeast 328 377 10,000 -162 Level FAA TRACON SMA TRACON (SMA)
Fri 07:56:05 AM 40.4522 -75.4342 156° South 286 329 9,900 -486 Descending FAA TRACON SMA TRACON (SMA)
Fri 07:56:25 AM 40.4308 -75.4214 156° South 281 323 9,700 -600 Descending FAA TRACON SMA TRACON (SMA)
Fri 07:56:45 AM 40.4103 -75.4094 156° South 262 302 9,500 -1,200 Descending FAA TRACON SMA TRACON (SMA)
Fri 07:57:05 AM 40.3856 -75.3950 156° South 256 295 8,900 -1,500 Descending FAA TRACON SMA TRACON (SMA)
Fri 07:57:25 AM 40.3664 -75.3839 156° South 254 292 8,500 -1,500 Descending FAA TRACON SMA TRACON (SMA)
Fri 07:57:45 AM 40.3464 -75.3719 156° South 251 289 7,900 -1,692 Descending FAA TRACON SMA TRACON (SMA)
Fri 07:58:04 AM 40.3269 -75.3606 156° South 250 288 7,400 -1,385 Descending FAA TRACON SMA TRACON (SMA)
Fri 07:58:24 AM 40.3025 -75.3458 155° Southeast 250 288 7,000 -600 Descending FAA TRACON SMA TRACON (SMA)
Fri 07:58:44 AM 40.2825 -75.3350 158° South 250 288 7,000  Level FAA TRACON SMA TRACON (SMA)
Fri 07:59:04 AM 40.2622 -75.3303 170° South 254 292 7,000 -150 Level FAA TRACON SMA TRACON (SMA)
Fri 07:59:24 AM 40.2389 -75.3386 195° South 234 269 6,900 -600 Descending FAA TRACON SMA TRACON (SMA)
Fri 07:59:44 AM 40.2186 -75.3478 199° South 237 273 6,600 -1,024 Descending FAA TRACON SMA TRACON (SMA)
Fri 08:00:05 AM 40.1953 -75.3589 200° South 237 273 6,200 -1,024 Descending FAA TRACON SMA TRACON (SMA)
Fri 08:00:25 AM 40.1778 -75.3681 202° Southwest 235 270 5,900 -300 Descending FAA TRACON SMA TRACON (SMA)
Fri 08:00:45 AM 40.1572 -75.3783 201° Southwest 235 270 6,000 154 Climbing FAA TRACON SMA TRACON (SMA)
Fri 08:01:04 AM 40.1342 -75.3889 199° South 233 268 6,000  Level FAA TRACON SMA TRACON (SMA)
Fri 08:01:24 AM 40.1161 -75.3967 198° South 233 268 6,000  Level FAA TRACON SMA TRACON (SMA)
Fri 08:01:44 AM 40.0961 -75.4069 201° Southwest 233 268 6,000  Level FAA TRACON SMA TRACON (SMA)
Fri 08:02:04 AM 40.0731 -75.4175 199° South 231 266 6,000  Level FAA TRACON SMA TRACON (SMA)
Fri 08:02:24 AM 40.0539 -75.4172 179° South 224 258 6,000  Level FAA TRACON SMA TRACON (SMA)
Fri 08:02:44 AM 40.0367 -75.4119 167° South 206 237 6,000  Level FAA TRACON SMA TRACON (SMA)
Fri 08:03:04 AM 40.0161 -75.4056 167° South 196 226 6,000  Level FAA TRACON SMA TRACON (SMA)
Fri 08:03:24 AM 40.0000 -75.4019 170° South 196 226 6,000  Level FAA TRACON SMA TRACON (SMA)
Fri 08:03:44 AM 39.9833 -75.3953 163° South 197 227 6,000  Level FAA TRACON SMA TRACON (SMA)
Fri 08:04:04 AM 39.9631 -75.3889 166° South 196 226 6,000  Level FAA TRACON SMA TRACON (SMA)
Fri 08:04:24 AM 39.9486 -75.3867 173° South 167 192 6,000  Level FAA TRACON SMA TRACON (SMA)
Fri 08:04:44 AM 39.9369 -75.3944 207° Southwest 143 165 6,000  Level FAA TRACON SMA TRACON (SMA)
Fri 08:05:04 AM 39.9269 -75.4117 233° Southwest 165 190 6,000 -300 Level FAA TRACON SMA TRACON (SMA)
Fri 08:05:24 AM 39.9242 -75.4294 258° West 158 182 5,800 -900 Descending FAA TRACON SMA TRACON (SMA)
Fri 08:05:44 AM 39.9203 -75.4469 254° West 160 184 5,400 -1,200 Descending FAA TRACON SMA TRACON (SMA)
Fri 08:06:04 AM 39.9156 -75.4689 254° West 162 186 5,000 -600 Descending FAA TRACON SMA TRACON (SMA)
Fri 08:06:24 AM 39.9114 -75.4861 252° West 162 186 5,000  Level FAA TRACON SMA TRACON (SMA)
Fri 08:06:44 AM 39.9069 -75.5031 251° West 161 185 5,000 -600 Level FAA TRACON SMA TRACON (SMA)
Fri 08:07:04 AM 39.9031 -75.5239 256° West 158 182 4,600 -1,200 Descending FAA TRACON SMA TRACON (SMA)
Fri 08:07:24 AM 39.8994 -75.5411 255° West 157 181 4,200 -900 Descending FAA TRACON SMA TRACON (SMA)
Fri 08:07:44 AM 39.8956 -75.5578 253° West 157 181 4,000 -450 Descending FAA TRACON SMA TRACON (SMA)
Fri 08:08:04 AM 39.8806 -75.5625 194° South 160 184 3,900 -750 Descending FAA TRACON SMA TRACON (SMA)
Fri 08:08:24 AM 39.8692 -75.5514 143° Southeast 175 201 3,500 -1,200 Descending FAA TRACON SMA TRACON (SMA)
Fri 08:08:44 AM 39.8600 -75.5386 133° Southeast 182 209 3,100 -750 Descending FAA TRACON SMA TRACON (SMA)
Fri 08:09:04 AM 39.8456 -75.5203 136° Southeast 174 200 3,000 -150 Descending FAA TRACON SMA TRACON (SMA)
Fri 08:09:24 AM 39.8353 -75.5061 133° Southeast 171 197 3,000  Level FAA TRACON SMA TRACON (SMA)
Fri 08:09:44 AM 39.8322 -75.4836 100° East 203 234 3,000 -300 Level FAA TRACON SMA TRACON (SMA)
Fri 08:10:04 AM 39.8300 -75.4556 96° East 204 235 2,800 -750 Descending FAA TRACON SMA TRACON (SMA)
Fri 08:10:24 AM 39.8294 -75.4353 92° East 200 230 2,500 -1,050 Descending FAA TRACON SMA TRACON (SMA)
Fri 08:10:44 AM 39.8342 -75.4100 76° East 218 251 2,100 -1,200 Descending FAA TRACON SMA TRACON (SMA)
Fri 08:11:04 AM 39.8394 -75.3825 76° East 204 235 1,700 -1,050 Descending FAA TRACON SMA TRACON (SMA)
Fri 08:11:24 AM 39.8436 -75.3617 75° East 196 226 1,400 -900 Descending FAA TRACON SMA TRACON (SMA)
Fri 08:11:44 AM 39.8472 -75.3425 76° East 182 209 1,100 -878 Descending FAA TRACON SMA TRACON (SMA)
Fri 08:12:05 AM 39.8514 -75.3225 75° East 155 178 800 -750 Descending FAA TRACON SMA TRACON (SMA)
Fri 08:12:24 AM 39.8544 -75.3067 76° East 146 168 600 -769 Descending FAA TRACON SMA TRACON (SMA)
Fri 08:12:44 AM 39.8575 -75.2914 75° East 144 166 300 -750 Descending FAA TRACON SMA TRACON (SMA)
Fri 08:13:04 AM 39.8600 -75.2794 75° East 145 167 100 -600 Descending FAA TRACON SMA TRACON (SMA)

Login

Don't have an account? Register now (free) for customized features, flight alerts, and more!